Time;durP1;ratioP1;P1;durP2;ratioP2;P2;SDS_P1;SDS_P2;PMS_P1;PMS_P2;Temp;Humidity;BMP_temperature;BMP_pressure;BME280_temperature;BME280_humidity;BME280_pressure;Samples;Min_cycle;Max_cycle;Signal;HPM_P1;HPM_P2
2023/06/21 00:00:35;;;;;;;6.72;5.65;;;;;;;;;;5283328;28;20634;-74
2023/06/21 00:03:06;;;;;;;6.13;5.63;;;;;;;;;;5283941;28;20020;-74
2023/06/21 00:05:38;;;;;;;6.50;6.00;;;;;;;;;;5283449;28;20695;-76
2023/06/21 00:08:12;;;;;;;6.70;6.10;;;;;;;;;;5284139;28;20040;-76
2023/06/21 00:10:44;;;;;;;6.15;5.55;;;;;;;;;;5283814;28;20384;-76
2023/06/21 00:13:15;;;;;;;5.55;5.15;;;;;;;;;;5283444;28;20024;-76
2023/06/21 00:15:46;;;;;;;6.07;5.57;;;;;;;;;;5283407;28;20073;-74
2023/06/21 00:18:17;;;;;;;8.32;6.85;;;;;;;;;;5283811;28;20749;-75
2023/06/21 00:20:48;;;;;;;6.57;5.93;;;;;;;;;;5282535;28;20029;-74
2023/06/21 00:23:20;;;;;;;7.20;6.50;;;;;;;;;;5283919;28;20016;-75
2023/06/21 00:25:51;;;;;;;7.45;6.70;;;;;;;;;;5283344;28;20027;-75
2023/06/21 00:28:22;;;;;;;7.00;6.40;;;;;;;;;;5282938;28;20384;-75
2023/06/21 00:30:53;;;;;;;6.90;6.30;;;;;;;;;;5283291;28;20463;-75
2023/06/21 00:33:25;;;;;;;6.77;6.23;;;;;;;;;;5283064;28;20057;-75
2023/06/21 00:35:56;;;;;;;7.03;6.53;;;;;;;;;;5283357;28;20342;-74
2023/06/21 00:38:27;;;;;;;7.30;6.80;;;;;;;;;;5283413;28;20379;-74
2023/06/21 00:40:59;;;;;;;7.50;6.90;;;;;;;;;;5282784;28;20108;-74
2023/06/21 00:43:30;;;;;;;7.37;6.77;;;;;;;;;;5283425;28;20269;-75
2023/06/21 00:46:02;;;;;;;7.38;6.78;;;;;;;;;;5283425;28;20629;-74
2023/06/21 00:48:33;;;;;;;7.68;7.07;;;;;;;;;;5282622;28;20051;-74
2023/06/21 00:51:04;;;;;;;7.40;6.90;;;;;;;;;;5283263;28;20072;-75
2023/06/21 00:53:38;;;;;;;7.55;6.85;;;;;;;;;;5283301;28;20271;-75
2023/06/21 00:56:10;;;;;;;7.13;6.47;;;;;;;;;;5282434;28;20028;-76
2023/06/21 00:58:41;;;;;;;6.97;6.43;;;;;;;;;;5282838;28;20039;-75
2023/06/21 01:01:12;;;;;;;7.40;6.70;;;;;;;;;;5283735;28;20062;-75
2023/06/21 01:03:44;;;;;;;7.80;7.20;;;;;;;;;;5282200;28;20266;-74
2023/06/21 01:06:15;;;;;;;7.68;6.90;;;;;;;;;;5283305;28;20358;-75
2023/06/21 01:09:01;;;;;;;7.30;6.65;;;;;;;;;;5281758;28;20417;-75
2023/06/21 01:11:47;;;;;;;7.10;6.43;;;;;;;;;;5283008;28;20035;-75
2023/06/21 01:14:26;;;;;;;7.50;6.90;;;;;;;;;;5283356;28;20451;-75
2023/06/21 01:16:58;;;;;;;9.40;7.70;;;;;;;;;;5281915;28;20020;-75
2023/06/21 01:19:32;;;;;;;7.55;6.93;;;;;;;;;;5282664;28;20051;-75
2023/06/21 01:22:12;;;;;;;7.30;6.70;;;;;;;;;;5282956;28;20023;-74
2023/06/21 01:24:50;;;;;;;7.60;7.10;;;;;;;;;;5281808;28;20030;-75
2023/06/21 01:27:21;;;;;;;7.22;6.65;;;;;;;;;;5283126;28;20021;-74
2023/06/21 01:29:56;;;;;;;7.53;6.93;;;;;;;;;;5281319;28;20077;-75
2023/06/21 01:32:28;;;;;;;6.90;6.40;;;;;;;;;;5282477;28;20279;-75
2023/06/21 01:35:01;;;;;;;8.02;7.32;;;;;;;;;;5282424;28;20028;-76
2023/06/21 01:37:32;;;;;;;7.60;7.00;;;;;;;;;;5281598;28;20472;-75
2023/06/21 01:40:09;;;;;;;7.47;6.87;;;;;;;;;;5282031;28;20035;-76
2023/06/21 01:42:41;;;;;;;7.95;7.15;;;;;;;;;;5281745;28;20745;-76
2023/06/21 01:45:12;;;;;;;8.68;8.07;;;;;;;;;;5281789;28;20081;-75
2023/06/21 01:47:44;;;;;;;7.68;7.05;;;;;;;;;;5281678;28;20022;-76
2023/06/21 01:50:16;;;;;;;7.75;7.15;;;;;;;;;;5282263;28;20525;-75
2023/06/21 01:52:48;;;;;;;7.72;7.03;;;;;;;;;;5280762;28;20028;-76
2023/06/21 01:55:19;;;;;;;8.48;7.60;;;;;;;;;;5282239;28;20455;-76
2023/06/21 01:57:52;;;;;;;7.82;7.18;;;;;;;;;;5280811;28;20364;-75
2023/06/21 02:00:25;;;;;;;8.88;8.18;;;;;;;;;;5282115;28;20558;-75
2023/06/21 02:02:59;;;;;;;7.90;7.22;;;;;;;;;;5281774;28;20017;-75
2023/06/21 02:05:31;;;;;;;9.05;8.25;;;;;;;;;;5280984;28;20482;-76
2023/06/21 02:08:07;;;;;;;8.35;7.65;;;;;;;;;;5281620;28;20024;-75
2023/06/21 02:10:38;;;;;;;8.02;7.38;;;;;;;;;;5281671;28;20024;-76
2023/06/21 02:13:10;;;;;;;8.68;7.78;;;;;;;;;;5280813;28;20024;-75
2023/06/21 02:15:41;;;;;;;8.07;7.47;;;;;;;;;;5281832;28;20455;-75
2023/06/21 02:18:13;;;;;;;8.40;7.70;;;;;;;;;;5282244;28;20473;-76
2023/06/21 02:20:45;;;;;;;8.73;7.93;;;;;;;;;;5280489;28;20459;-76
2023/06/21 02:23:16;;;;;;;7.97;7.37;;;;;;;;;;5281927;28;20028;-75
2023/06/21 02:25:47;;;;;;;7.93;7.32;;;;;;;;;;5281072;28;20259;-76
2023/06/21 02:28:20;;;;;;;8.80;8.07;;;;;;;;;;5281006;28;20013;-75
2023/06/21 02:30:51;;;;;;;8.50;7.80;;;;;;;;;;5281436;28;20271;-76
2023/06/21 02:33:22;;;;;;;10.00;9.00;;;;;;;;;;5281349;28;20024;-75
2023/06/21 02:35:53;;;;;;;8.87;7.90;;;;;;;;;;5281095;28;20340;-76
2023/06/21 02:38:28;;;;;;;9.50;8.77;;;;;;;;;;5281343;28;20346;-75
2023/06/21 02:40:59;;;;;;;8.98;8.27;;;;;;;;;;5280712;28;20037;-75
2023/06/21 02:43:30;;;;;;;8.93;8.30;;;;;;;;;;5281373;28;20020;-75
2023/06/21 02:46:02;;;;;;;9.50;8.80;;;;;;;;;;5281666;28;20894;-76
2023/06/21 02:48:33;;;;;;;9.52;8.73;;;;;;;;;;5280847;28;20337;-75
2023/06/21 02:51:05;;;;;;;9.10;8.30;;;;;;;;;;5281167;28;20044;-75
2023/06/21 02:53:36;;;;;;;9.82;9.13;;;;;;;;;;5281080;28;20087;-75
2023/06/21 02:56:07;;;;;;;9.47;8.67;;;;;;;;;;5280581;28;20089;-76
2023/06/21 02:58:38;;;;;;;9.83;8.93;;;;;;;;;;5281059;28;20259;-76
2023/06/21 03:01:09;;;;;;;9.20;8.50;;;;;;;;;;5280392;28;20279;-75
2023/06/21 03:03:43;;;;;;;9.27;8.48;;;;;;;;;;5280850;28;20330;-75
2023/06/21 03:06:14;;;;;;;8.98;8.18;;;;;;;;;;5281575;28;20475;-75
2023/06/21 03:08:45;;;;;;;9.07;8.25;;;;;;;;;;5280017;28;20021;-75
2023/06/21 03:11:17;;;;;;;12.60;8.30;;;;;;;;;;5281323;28;20017;-75
2023/06/21 03:13:48;;;;;;;9.60;8.80;;;;;;;;;;5281546;28;20294;-75
2023/06/21 03:16:20;;;;;;;8.97;8.10;;;;;;;;;;5284471;28;20084;-76
2023/06/21 03:18:51;;;;;;;9.07;8.20;;;;;;;;;;5284583;28;20376;-75
2023/06/21 03:21:22;;;;;;;9.17;8.13;;;;;;;;;;5285318;28;20020;-75
2023/06/21 03:23:53;;;;;;;9.60;8.83;;;;;;;;;;5283491;28;20269;-75
2023/06/21 03:26:25;;;;;;;8.82;8.13;;;;;;;;;;5284640;28;20349;-75
2023/06/21 03:28:57;;;;;;;9.93;8.70;;;;;;;;;;5284629;28;20024;-74
2023/06/21 03:31:28;;;;;;;9.32;8.48;;;;;;;;;;5284188;28;20285;-75
2023/06/21 03:34:00;;;;;;;9.38;8.40;;;;;;;;;;5285031;28;20458;-75
2023/06/21 03:36:31;;;;;;;9.10;8.43;;;;;;;;;;5284243;28;20035;-75
2023/06/21 03:39:02;;;;;;;9.52;8.65;;;;;;;;;;5284581;28;20353;-75
2023/06/21 03:41:33;;;;;;;9.90;8.90;;;;;;;;;;5284624;28;20025;-75
2023/06/21 03:44:04;;;;;;;9.95;9.15;;;;;;;;;;5283787;28;20267;-75
2023/06/21 03:46:36;;;;;;;10.13;9.32;;;;;;;;;;5284363;28;20146;-75
2023/06/21 03:49:07;;;;;;;9.93;9.13;;;;;;;;;;5284655;28;20463;-75
2023/06/21 03:51:39;;;;;;;10.60;9.02;;;;;;;;;;5283429;28;20297;-75
2023/06/21 03:54:10;;;;;;;10.50;9.60;;;;;;;;;;5284877;28;20437;-75
2023/06/21 03:56:41;;;;;;;9.68;8.77;;;;;;;;;;5284270;28;20024;-75
2023/06/21 03:59:13;;;;;;;11.33;10.27;;;;;;;;;;5284199;28;20226;-75
2023/06/21 04:01:44;;;;;;;10.75;9.75;;;;;;;;;;5283991;28;20285;-75
2023/06/21 04:04:15;;;;;;;10.43;9.43;;;;;;;;;;5284460;28;20063;-75
2023/06/21 04:06:46;;;;;;;10.68;9.75;;;;;;;;;;5283154;28;20271;-74
2023/06/21 04:09:18;;;;;;;10.67;9.83;;;;;;;;;;5284526;28;20024;-75
2023/06/21 04:11:49;;;;;;;11.40;10.30;;;;;;;;;;5282948;28;20270;-75
2023/06/21 04:14:20;;;;;;;10.53;9.63;;;;;;;;;;5284326;28;20275;-74
2023/06/21 04:16:51;;;;;;;11.37;10.37;;;;;;;;;;5283570;28;20320;-74
2023/06/21 04:19:22;;;;;;;10.37;9.40;;;;;;;;;;5283645;28;20291;-75
2023/06/21 04:21:54;;;;;;;12.20;11.00;;;;;;;;;;5283891;28;20267;-76
2023/06/21 04:24:25;;;;;;;11.18;10.18;;;;;;;;;;5283407;28;20267;-75
2023/06/21 04:26:58;;;;;;;10.93;9.93;;;;;;;;;;5283021;28;20353;-75
2023/06/21 04:29:29;;;;;;;10.65;9.68;;;;;;;;;;5283902;28;20077;-75
2023/06/21 04:32:01;;;;;;;11.00;10.00;;;;;;;;;;5283701;28;20016;-75
2023/06/21 04:34:33;;;;;;;11.18;10.07;;;;;;;;;;5282796;28;20031;-75
2023/06/21 04:37:06;;;;;;;11.23;10.30;;;;;;;;;;5283478;28;20029;-75
2023/06/21 04:39:38;;;;;;;12.90;11.75;;;;;;;;;;5282498;28;20029;-75
2023/06/21 04:42:09;;;;;;;11.27;10.37;;;;;;;;;;5283619;28;20082;-75
2023/06/21 04:44:40;;;;;;;11.40;10.40;;;;;;;;;;5283340;28;20278;-75
2023/06/21 04:47:11;;;;;;;11.52;10.52;;;;;;;;;;5282958;28;20362;-75
2023/06/21 04:49:43;;;;;;;11.80;10.77;;;;;;;;;;5282792;28;20035;-75
2023/06/21 04:52:14;;;;;;;11.75;10.75;;;;;;;;;;5283328;28;20370;-75
2023/06/21 04:54:45;;;;;;;11.17;10.37;;;;;;;;;;5282047;28;20084;-75
2023/06/21 04:57:16;;;;;;;13.45;12.25;;;;;;;;;;5283445;28;20753;-75
2023/06/21 04:59:48;;;;;;;12.40;11.33;;;;;;;;;;5282575;28;20471;-75
2023/06/21 05:02:19;;;;;;;12.00;11.00;;;;;;;;;;5282566;28;20614;-74
2023/06/21 05:04:51;;;;;;;12.68;11.50;;;;;;;;;;5282725;28;20037;-74
2023/06/21 05:07:22;;;;;;;13.50;12.40;;;;;;;;;;5283232;28;20034;-74
2023/06/21 05:09:53;;;;;;;13.88;12.57;;;;;;;;;;5281787;28;20277;-75
2023/06/21 05:12:24;;;;;;;12.87;11.67;;;;;;;;;;5282910;28;20032;-75
2023/06/21 05:14:55;;;;;;;14.37;12.97;;;;;;;;;;5281963;28;20270;-75
2023/06/21 05:17:27;;;;;;;13.43;12.35;;;;;;;;;;5282913;28;20259;-76
2023/06/21 05:19:58;;;;;;;13.27;12.18;;;;;;;;;;5282422;28;20578;-75
2023/06/21 05:22:29;;;;;;;14.93;13.52;;;;;;;;;;5281692;28;20540;-75
2023/06/21 05:25:02;;;;;;;14.02;12.82;;;;;;;;;;5282446;28;20070;-75
2023/06/21 05:27:33;;;;;;;13.30;12.20;;;;;;;;;;5282381;28;20044;-76
2023/06/21 05:30:05;;;;;;;14.38;12.95;;;;;;;;;;5281833;28;20080;-76
2023/06/21 05:32:37;;;;;;;15.50;14.23;;;;;;;;;;5282503;28;20103;-75
2023/06/21 05:35:08;;;;;;;15.20;13.90;;;;;;;;;;5282541;28;20105;-75
2023/06/21 05:37:39;;;;;;;15.43;14.23;;;;;;;;;;5280581;28;20088;-75
2023/06/21 05:40:11;;;;;;;14.90;13.65;;;;;;;;;;5282570;28;20286;-75
2023/06/21 05:42:44;;;;;;;15.27;14.05;;;;;;;;;;5281863;28;20041;-76
2023/06/21 05:45:15;;;;;;;15.60;14.40;;;;;;;;;;5281979;28;20012;-75
2023/06/21 05:47:47;;;;;;;15.13;13.82;;;;;;;;;;5281968;28;20035;-76
2023/06/21 05:50:18;;;;;;;16.03;14.40;;;;;;;;;;5281217;28;20123;-75
2023/06/21 05:52:49;;;;;;;15.32;14.10;;;;;;;;;;5281534;28;20746;-75
2023/06/21 05:55:20;;;;;;;16.17;14.67;;;;;;;;;;5282071;28;20048;-74
2023/06/21 05:57:54;;;;;;;15.13;13.87;;;;;;;;;;5280794;28;20768;-74
2023/06/21 06:00:25;;;;;;;14.90;13.65;;;;;;;;;;5281856;28;20700;-75
2023/06/21 06:02:56;;;;;;;15.27;13.93;;;;;;;;;;5281924;28;20032;-76
2023/06/21 06:05:28;;;;;;;15.63;14.13;;;;;;;;;;5281322;28;20313;-74
2023/06/21 06:07:59;;;;;;;15.00;13.67;;;;;;;;;;5282057;28;20781;-75
2023/06/21 06:10:30;;;;;;;16.80;15.40;;;;;;;;;;5281449;28;20298;-75
2023/06/21 06:13:01;;;;;;;16.58;15.27;;;;;;;;;;5280825;28;20263;-75
2023/06/21 06:15:32;;;;;;;16.70;15.30;;;;;;;;;;5281530;28;20471;-75
2023/06/21 06:18:03;;;;;;;14.40;13.23;;;;;;;;;;5280771;28;20325;-74
2023/06/21 06:20:35;;;;;;;15.43;14.13;;;;;;;;;;5281420;28;20305;-74
2023/06/21 06:23:08;;;;;;;14.63;13.40;;;;;;;;;;5281592;28;20259;-74
2023/06/21 06:25:40;;;;;;;13.02;11.85;;;;;;;;;;5280520;28;20020;-73
2023/06/21 06:28:11;;;;;;;13.98;12.60;;;;;;;;;;5281793;28;20096;-73
2023/06/21 06:30:42;;;;;;;13.57;12.37;;;;;;;;;;5281023;28;20024;-72
2023/06/21 06:33:13;;;;;;;13.10;12.02;;;;;;;;;;5281321;28;20539;-75
2023/06/21 06:35:44;;;;;;;10.97;10.07;;;;;;;;;;5280947;28;20040;-75
2023/06/21 06:38:16;;;;;;;10.05;9.18;;;;;;;;;;5281621;28;20699;-74
2023/06/21 06:40:47;;;;;;;7.72;7.00;;;;;;;;;;5280083;28;20434;-74
2023/06/21 06:43:18;;;;;;;10.13;9.20;;;;;;;;;;5281798;28;20070;-75
2023/06/21 06:45:49;;;;;;;5.93;5.50;;;;;;;;;;5281222;28;20028;-75
2023/06/21 06:48:20;;;;;;;8.43;7.73;;;;;;;;;;5282791;28;20020;-75
2023/06/21 06:50:52;;;;;;;8.67;7.90;;;;;;;;;;5285151;28;20785;-74
2023/06/21 06:53:23;;;;;;;7.38;6.80;;;;;;;;;;5284315;28;20290;-77
2023/06/21 06:55:55;;;;;;;7.75;6.80;;;;;;;;;;5285643;28;20450;-77
2023/06/21 06:58:27;;;;;;;8.15;6.40;;;;;;;;;;5285624;28;20059;-78
2023/06/21 07:00:58;;;;;;;6.55;6.03;;;;;;;;;;5284894;28;20102;-76
2023/06/21 07:03:30;;;;;;;7.15;6.47;;;;;;;;;;5285374;28;20028;-76
2023/06/21 07:06:01;;;;;;;7.00;6.43;;;;;;;;;;5285319;28;20029;-75
2023/06/21 07:08:32;;;;;;;7.00;5.95;;;;;;;;;;5284455;28;20661;-75
2023/06/21 07:11:03;;;;;;;7.30;6.70;;;;;;;;;;5285360;28;20375;-76
2023/06/21 07:13:36;;;;;;;6.77;6.17;;;;;;;;;;5285137;28;20278;-75
2023/06/21 07:16:07;;;;;;;7.35;6.85;;;;;;;;;;5283981;28;20452;-76
2023/06/21 07:18:38;;;;;;;7.47;6.63;;;;;;;;;;5284904;28;20035;-76
2023/06/21 07:21:10;;;;;;;8.23;7.53;;;;;;;;;;5284972;28;20485;-76
2023/06/21 07:23:41;;;;;;;8.90;8.10;;;;;;;;;;5283654;28;20431;-76
2023/06/21 07:26:12;;;;;;;9.87;8.87;;;;;;;;;;5285015;28;20335;-75
2023/06/21 07:28:43;;;;;;;10.25;9.30;;;;;;;;;;5283570;28;20262;-75
2023/06/21 07:31:14;;;;;;;10.60;9.60;;;;;;;;;;5285106;28;20048;-75
2023/06/21 07:33:47;;;;;;;10.90;9.88;;;;;;;;;;5284581;28;20616;-75
2023/06/21 07:36:18;;;;;;;10.73;9.57;;;;;;;;;;5284206;28;20146;-75
2023/06/21 07:38:50;;;;;;;9.27;8.43;;;;;;;;;;5284289;28;20485;-76
2023/06/21 07:41:21;;;;;;;8.70;8.00;;;;;;;;;;5285153;28;20290;-76
2023/06/21 07:43:52;;;;;;;7.73;7.03;;;;;;;;;;5283309;28;20287;-78
2023/06/21 07:46:23;;;;;;;7.87;7.20;;;;;;;;;;5284642;28;20621;-77
2023/06/21 07:48:54;;;;;;;8.73;7.90;;;;;;;;;;5284630;28;20099;-77
2023/06/21 07:51:25;;;;;;;8.33;7.53;;;;;;;;;;5283327;28;20311;-78
2023/06/21 07:53:57;;;;;;;8.93;8.15;;;;;;;;;;5284523;28;20021;-76
2023/06/21 07:56:28;;;;;;;8.80;7.90;;;;;;;;;;5283631;28;20016;-77
2023/06/21 07:58:59;;;;;;;8.50;7.68;;;;;;;;;;5283551;28;20286;-77
2023/06/21 08:01:30;;;;;;;7.90;7.30;;;;;;;;;;5283834;28;20028;-77
2023/06/21 08:04:01;;;;;;;9.15;8.30;;;;;;;;;;5283247;28;20271;-77
2023/06/21 08:06:33;;;;;;;9.15;8.40;;;;;;;;;;5284352;28;20024;-77
2023/06/21 08:09:04;;;;;;;8.30;7.60;;;;;;;;;;5284435;28;20171;-76
2023/06/21 08:11:35;;;;;;;7.90;7.33;;;;;;;;;;5283267;28;20024;-76
2023/06/21 08:14:06;;;;;;;7.30;6.70;;;;;;;;;;5283701;28;20648;-76
2023/06/21 08:16:38;;;;;;;6.35;5.85;;;;;;;;;;5283865;28;20024;-76
2023/06/21 08:19:09;;;;;;;5.57;5.07;;;;;;;;;;5282954;28;20024;-75
2023/06/21 08:21:40;;;;;;;6.37;4.97;;;;;;;;;;5283487;28;20016;-76
2023/06/21 08:24:11;;;;;;;6.50;6.03;;;;;;;;;;5283912;28;20738;-76
2023/06/21 08:26:42;;;;;;;6.90;5.03;;;;;;;;;;5282452;28;20391;-76
2023/06/21 08:29:13;;;;;;;6.93;5.10;;;;;;;;;;5283938;28;20108;-77
2023/06/21 08:31:45;;;;;;;5.40;4.90;;;;;;;;;;5282719;28;20017;-76
2023/06/21 08:34:16;;;;;;;7.90;5.27;;;;;;;;;;5283948;28;20278;-77
2023/06/21 08:36:47;;;;;;;5.57;4.83;;;;;;;;;;5283352;28;20273;-76
2023/06/21 08:39:18;;;;;;;5.80;4.75;;;;;;;;;;5283039;28;20016;-76
2023/06/21 08:41:49;;;;;;;4.95;4.55;;;;;;;;;;5283219;28;20024;-77
2023/06/21 08:44:21;;;;;;;4.70;4.27;;;;;;;;;;5283853;28;20078;-76
2023/06/21 08:46:53;;;;;;;6.60;4.05;;;;;;;;;;5282229;28;20337;-77
2023/06/21 08:49:25;;;;;;;3.60;3.30;;;;;;;;;;5282210;28;20522;-78
2023/06/21 08:51:58;;;;;;;3.58;3.28;;;;;;;;;;5282068;28;20117;-77
2023/06/21 08:54:30;;;;;;;3.20;2.90;;;;;;;;;;5280989;28;20017;-76
2023/06/21 08:57:03;;;;;;;2.97;2.67;;;;;;;;;;5276854;28;20021;-77
2023/06/21 08:59:45;;;;;;;2.75;2.30;;;;;;;;;;5281828;28;20037;-77
2023/06/21 09:02:22;;;;;;;3.08;2.28;;;;;;;;;;5282690;28;20431;-77
2023/06/21 09:04:55;;;;;;;2.80;1.40;;;;;;;;;;5282721;28;20059;-77
2023/06/21 09:07:26;;;;;;;3.15;1.40;;;;;;;;;;5281663;28;20028;-77
2023/06/21 09:09:58;;;;;;;1.65;0.90;;;;;;;;;;5283004;28;20374;-77
2023/06/21 09:12:30;;;;;;;1.92;0.98;;;;;;;;;;5281650;28;20048;-78
2023/06/21 09:15:01;;;;;;;1.60;1.38;;;;;;;;;;5281196;28;20016;-77
2023/06/21 09:17:33;;;;;;;1.73;0.60;;;;;;;;;;5275185;28;20028;-77
2023/06/21 09:20:04;;;;;;;1.00;0.60;;;;;;;;;;5282824;28;20043;-77
2023/06/21 09:22:36;;;;;;;1.73;0.68;;;;;;;;;;5281849;28;20031;-76
2023/06/21 09:25:07;;;;;;;1.17;0.50;;;;;;;;;;5282539;28;20024;-76
2023/06/21 09:27:39;;;;;;;1.13;0.75;;;;;;;;;;5281879;28;20016;-77
2023/06/21 09:30:10;;;;;;;1.38;1.08;;;;;;;;;;5281658;28;20086;-77
2023/06/21 09:32:42;;;;;;;3.55;1.17;;;;;;;;;;5281414;28;20016;-76
2023/06/21 09:35:15;;;;;;;1.92;0.80;;;;;;;;;;5281609;28;20024;-77
2023/06/21 09:37:47;;;;;;;2.03;0.93;;;;;;;;;;5281105;28;20028;-78
2023/06/21 09:40:18;;;;;;;2.23;0.80;;;;;;;;;;5281588;28;20040;-78
2023/06/21 09:42:50;;;;;;;1.43;0.70;;;;;;;;;;5281289;28;20158;-76
2023/06/21 09:45:21;;;;;;;1.85;0.60;;;;;;;;;;5281738;28;20023;-76
2023/06/21 09:47:53;;;;;;;0.90;0.50;;;;;;;;;;5280880;28;20024;-76
2023/06/21 09:50:24;;;;;;;2.72;1.25;;;;;;;;;;5281496;28;20040;-76
2023/06/21 09:52:55;;;;;;;1.50;0.90;;;;;;;;;;5281932;28;20073;-77
2023/06/21 09:55:26;;;;;;;1.50;0.80;;;;;;;;;;5281940;28;20449;-75
2023/06/21 09:57:58;;;;;;;1.50;0.90;;;;;;;;;;5280961;28;20373;-77
2023/06/21 10:00:38;;;;;;;1.55;1.13;;;;;;;;;;5281643;28;20032;-77
2023/06/21 10:03:09;;;;;;;1.23;0.60;;;;;;;;;;5281095;28;20020;-77
2023/06/21 10:05:54;;;;;;;0.90;0.50;;;;;;;;;;5281594;28;20074;-77
2023/06/21 10:08:26;;;;;;;1.10;0.60;;;;;;;;;;5281642;28;20023;-77
2023/06/21 10:10:57;;;;;;;1.60;0.73;;;;;;;;;;5280884;28;20020;-77
2023/06/21 10:13:29;;;;;;;1.30;0.70;;;;;;;;;;5282028;28;20012;-77
2023/06/21 10:16:01;;;;;;;1.35;0.70;;;;;;;;;;5282009;28;20046;-77
2023/06/21 10:18:34;;;;;;;1.23;0.70;;;;;;;;;;5281010;28;20013;-77
2023/06/21 10:21:06;;;;;;;1.70;1.08;;;;;;;;;;5281938;28;20119;-77
2023/06/21 10:23:38;;;;;;;1.90;1.20;;;;;;;;;;5281378;28;20522;-77
2023/06/21 10:26:12;;;;;;;2.22;0.90;;;;;;;;;;5280947;28;20456;-77
2023/06/21 10:28:45;;;;;;;3.30;1.13;;;;;;;;;;5281432;28;20445;-77
2023/06/21 10:31:18;;;;;;;4.10;0.90;;;;;;;;;;5281429;28;20019;-77
2023/06/21 10:33:50;;;;;;;1.80;0.80;;;;;;;;;;5281260;28;20024;-77
2023/06/21 10:36:24;;;;;;;1.75;0.65;;;;;;;;;;5282233;28;20062;-78
2023/06/21 10:38:58;;;;;;;4.40;1.02;;;;;;;;;;5280985;28;20016;-77
2023/06/21 10:41:30;;;;;;;2.20;1.67;;;;;;;;;;5281531;28;20101;-77
2023/06/21 10:44:02;;;;;;;1.60;1.15;;;;;;;;;;5281469;28;20083;-77
2023/06/21 10:46:35;;;;;;;2.88;1.35;;;;;;;;;;5280582;28;20055;-77
2023/06/21 10:49:07;;;;;;;2.25;1.23;;;;;;;;;;5281408;28;20040;-77
2023/06/21 10:51:40;;;;;;;1.50;0.90;;;;;;;;;;5281377;28;20480;-77
2023/06/21 10:54:11;;;;;;;2.25;1.40;;;;;;;;;;5280970;28;20123;-77
2023/06/21 10:56:43;;;;;;;1.67;1.30;;;;;;;;;;5281108;28;20099;-76
2023/06/21 10:59:15;;;;;;;4.10;1.65;;;;;;;;;;5281912;28;20017;-77
2023/06/21 11:01:46;;;;;;;2.10;1.23;;;;;;;;;;5280641;28;20421;-76
2023/06/21 11:04:17;;;;;;;2.57;0.90;;;;;;;;;;5281663;28;20027;-77
2023/06/21 11:06:56;;;;;;;1.93;1.20;;;;;;;;;;5280434;28;20012;-75
2023/06/21 11:09:27;;;;;;;2.28;0.80;;;;;;;;;;5281353;28;20365;-76
2023/06/21 11:12:05;;;;;;;1.60;1.00;;;;;;;;;;5281465;28;20103;-76
2023/06/21 11:14:38;;;;;;;1.60;0.85;;;;;;;;;;5280429;28;20745;-76
2023/06/21 11:17:14;;;;;;;2.80;0.85;;;;;;;;;;5281354;28;20027;-80
2023/06/21 11:19:47;;;;;;;2.00;0.90;;;;;;;;;;5274918;28;20360;-79
2023/06/21 11:22:23;;;;;;;1.58;0.90;;;;;;;;;;5279381;28;20025;-79
2023/06/21 11:25:00;;;;;;;3.05;0.80;;;;;;;;;;5280607;28;20028;-77
2023/06/21 11:27:31;;;;;;;4.38;1.10;;;;;;;;;;5280150;28;20487;-78
2023/06/21 11:30:09;;;;;;;1.58;0.80;;;;;;;;;;5280805;28;20035;-79
2023/06/21 11:32:53;;;;;;;1.95;1.08;;;;;;;;;;5280726;28;20026;-79
2023/06/21 11:35:36;;;;;;;1.50;0.80;;;;;;;;;;5281632;28;20474;-77
2023/06/21 11:38:07;;;;;;;1.45;0.70;;;;;;;;;;5284462;28;20115;-78
2023/06/21 11:40:38;;;;;;;2.30;1.23;;;;;;;;;;5284549;28;20115;-78
2023/06/21 11:43:15;;;;;;;2.53;0.90;;;;;;;;;;5283993;28;20273;-76
2023/06/21 11:45:54;;;;;;;3.22;1.23;;;;;;;;;;5284596;28;20027;-78
2023/06/21 11:48:29;;;;;;;2.38;1.02;;;;;;;;;;5280545;28;20013;-78
2023/06/21 11:51:09;;;;;;;3.05;1.30;;;;;;;;;;5282458;28;20049;-77
2023/06/21 11:53:43;;;;;;;5.68;1.00;;;;;;;;;;5281718;28;20421;-76
2023/06/21 11:56:17;;;;;;;2.45;1.10;;;;;;;;;;5283420;28;20406;-77
2023/06/21 11:58:50;;;;;;;3.58;1.13;;;;;;;;;;5280943;28;20047;-76
2023/06/21 12:01:21;;;;;;;1.63;1.08;;;;;;;;;;5281898;28;20023;-76
2023/06/21 12:03:55;;;;;;;2.27;1.27;;;;;;;;;;5280839;28;20459;-77
2023/06/21 12:06:28;;;;;;;1.55;1.00;;;;;;;;;;5281797;28;20336;-78
2023/06/21 12:08:59;;;;;;;2.90;1.50;;;;;;;;;;5276222;28;20115;-77
2023/06/21 12:11:30;;;;;;;3.13;1.30;;;;;;;;;;5261640;28;20103;-77
2023/06/21 12:14:03;;;;;;;3.35;0.93;;;;;;;;;;5262886;28;20051;-77
2023/06/21 12:16:34;;;;;;;2.33;0.85;;;;;;;;;;5262535;28;20108;-77
2023/06/21 12:19:06;;;;;;;2.47;1.05;;;;;;;;;;5262328;28;20120;-78
2023/06/21 12:21:39;;;;;;;1.85;1.00;;;;;;;;;;5262231;28;20468;-79
2023/06/21 12:24:10;;;;;;;2.03;1.00;;;;;;;;;;5261846;28;20044;-78
2023/06/21 12:26:50;;;;;;;2.90;0.77;;;;;;;;;;5262741;28;20013;-76
2023/06/21 12:29:21;;;;;;;4.38;0.93;;;;;;;;;;5262937;28;20441;-77
2023/06/21 12:31:53;;;;;;;3.13;0.80;;;;;;;;;;5261532;28;20108;-77
2023/06/21 12:34:25;;;;;;;2.22;0.70;;;;;;;;;;5261820;28;20801;-76
2023/06/21 12:36:58;;;;;;;1.35;0.85;;;;;;;;;;5261589;28;20111;-78
2023/06/21 12:39:30;;;;;;;2.17;0.90;;;;;;;;;;5261836;28;20064;-78
2023/06/21 12:42:04;;;;;;;1.20;0.60;;;;;;;;;;5262991;28;20459;-79
2023/06/21 12:44:36;;;;;;;1.30;0.68;;;;;;;;;;5262408;28;20029;-79
2023/06/21 12:47:07;;;;;;;1.80;0.80;;;;;;;;;;5261462;28;20371;-78
2023/06/21 12:49:39;;;;;;;2.45;0.65;;;;;;;;;;5262732;28;20029;-78
2023/06/21 12:52:10;;;;;;;5.40;1.30;;;;;;;;;;5261419;28;20109;-79
2023/06/21 12:54:54;;;;;;;2.75;1.00;;;;;;;;;;5262111;28;20028;-78
2023/06/21 12:57:29;;;;;;;1.58;0.90;;;;;;;;;;5262305;28;20039;-78
2023/06/21 13:00:00;;;;;;;2.88;0.95;;;;;;;;;;5261714;28;20069;-81
2023/06/21 13:02:31;;;;;;;2.70;0.70;;;;;;;;;;5262425;28;20048;-78
2023/06/21 13:05:03;;;;;;;1.42;0.57;;;;;;;;;;5262368;28;20506;-79
2023/06/21 13:07:34;;;;;;;1.80;0.82;;;;;;;;;;5261699;28;20020;-79
2023/06/21 13:10:05;;;;;;;2.50;0.60;;;;;;;;;;5262477;28;20029;-79
2023/06/21 13:12:38;;;;;;;1.80;0.70;;;;;;;;;;5262583;28;20028;-79
2023/06/21 13:15:09;;;;;;;2.75;0.60;;;;;;;;;;5261517;28;20017;-78
2023/06/21 13:17:40;;;;;;;2.85;0.60;;;;;;;;;;5261753;28;20086;-78
2023/06/21 13:20:11;;;;;;;4.22;1.58;;;;;;;;;;5261285;28;20424;-79
2023/06/21 13:22:43;;;;;;;1.35;0.60;;;;;;;;;;5261304;28;20029;-79
2023/06/21 13:25:14;;;;;;;2.97;0.80;;;;;;;;;;5262450;28;20040;-79
2023/06/21 13:27:45;;;;;;;2.77;0.70;;;;;;;;;;5260578;28;20017;-80
2023/06/21 13:30:16;;;;;;;1.30;0.55;;;;;;;;;;5261767;28;20256;-80
2023/06/21 13:32:48;;;;;;;1.77;0.90;;;;;;;;;;5261113;28;20086;-80
2023/06/21 13:35:19;;;;;;;2.83;1.00;;;;;;;;;;5261195;28;20016;-80
2023/06/21 13:37:50;;;;;;;3.57;0.83;;;;;;;;;;5261349;28;20013;-79
2023/06/21 13:40:21;;;;;;;4.73;1.33;;;;;;;;;;5261755;28;20430;-80
2023/06/21 13:42:53;;;;;;;2.38;1.10;;;;;;;;;;5260500;28;20272;-79
2023/06/21 13:45:24;;;;;;;3.17;0.97;;;;;;;;;;5261552;28;20021;-80
2023/06/21 13:47:55;;;;;;;2.42;1.00;;;;;;;;;;5261661;28;20056;-80
2023/06/21 13:50:26;;;;;;;3.90;1.00;;;;;;;;;;5260398;28;20120;-80
2023/06/21 13:52:58;;;;;;;2.23;0.90;;;;;;;;;;5261368;28;20395;-79
2023/06/21 13:55:29;;;;;;;2.85;0.98;;;;;;;;;;5260555;28;20084;-79
2023/06/21 13:58:00;;;;;;;1.60;0.80;;;;;;;;;;5260100;28;20438;-80
2023/06/21 14:00:31;;;;;;;1.47;0.83;;;;;;;;;;5261278;28;20436;-79
2023/06/21 14:03:03;;;;;;;2.43;0.80;;;;;;;;;;5260211;28;20359;-81
2023/06/21 14:05:34;;;;;;;1.58;0.77;;;;;;;;;;5261336;28;20502;-80
2023/06/21 14:08:05;;;;;;;1.88;0.70;;;;;;;;;;5260910;28;20031;-79
2023/06/21 14:10:37;;;;;;;1.30;0.70;;;;;;;;;;5260440;28;20059;-81
2023/06/21 14:13:08;;;;;;;3.87;0.73;;;;;;;;;;5261220;28;20747;-81
2023/06/21 14:15:39;;;;;;;2.60;0.95;;;;;;;;;;5261057;28;20317;-80
2023/06/21 14:18:10;;;;;;;1.93;0.70;;;;;;;;;;5260298;28;20020;-79
2023/06/21 14:20:41;;;;;;;2.55;0.65;;;;;;;;;;5260373;28;20330;-80
2023/06/21 14:23:13;;;;;;;1.23;0.63;;;;;;;;;;5261100;28;20111;-80
2023/06/21 14:25:44;;;;;;;1.80;0.83;;;;;;;;;;5259755;28;20465;-80
2023/06/21 14:28:15;;;;;;;3.10;1.10;;;;;;;;;;5261465;28;20435;-81
2023/06/21 14:30:46;;;;;;;2.13;0.77;;;;;;;;;;5259846;28;20282;-79
2023/06/21 14:33:17;;;;;;;2.33;0.93;;;;;;;;;;5261234;28;20263;-80
2023/06/21 14:35:48;;;;;;;4.72;0.80;;;;;;;;;;5260647;28;20087;-80
2023/06/21 14:38:20;;;;;;;2.28;0.88;;;;;;;;;;5260634;28;20028;-80
2023/06/21 14:40:51;;;;;;;2.13;1.00;;;;;;;;;;5260262;28;20120;-80
2023/06/21 14:43:22;;;;;;;2.27;0.70;;;;;;;;;;5261067;28;20467;-80
2023/06/21 14:45:53;;;;;;;3.42;0.80;;;;;;;;;;5259435;28;20032;-80
2023/06/21 14:48:25;;;;;;;1.95;0.95;;;;;;;;;;5260467;28;20020;-80
2023/06/21 14:50:58;;;;;;;2.10;0.90;;;;;;;;;;5260064;28;20101;-79
2023/06/21 14:53:29;;;;;;;4.30;1.15;;;;;;;;;;5260019;28;20468;-81
2023/06/21 14:56:01;;;;;;;3.17;1.20;;;;;;;;;;5275920;28;20167;-79
2023/06/21 14:58:32;;;;;;;3.07;1.30;;;;;;;;;;5258602;28;20047;-78
2023/06/21 15:01:04;;;;;;;3.28;0.90;;;;;;;;;;5281118;28;20776;-81
2023/06/21 15:03:35;;;;;;;2.00;0.85;;;;;;;;;;5281182;28;20024;-80
2023/06/21 15:06:06;;;;;;;2.10;0.90;;;;;;;;;;5280458;28;20073;-81